Terminal Aerodrome Forecast
Issued by NWS Twin Cities, MN

Home | Current Version | Previous Version | Text Only | Print | Product List | Glossary Off
Versions: 1 2 3 4 5 6 7 8 9 10 11 12 13 14 15 16

000
FTUS43 KMPX 211100 RRA
TAFEAU
TAF
KEAU 211139Z 2112/2212 30011KT P6SM -SHRA OVC014
     FM211600 35012G19KT P6SM BKN020 OVC040
     FM212000 34010KT P6SM SCT025 BKN040
     FM220000 34005KT P6SM SCT045
     FM220300 VRB03KT P6SM SKC=

USA.gov is the U.S. government's official web portal to all federal, state and local government web resources and services.